sensor_id;sensor_type;location;lat;lon;timestamp;P1;durP1;ratioP1;P2;durP2;ratioP2
35022;SDS011;21214;44.912;8.204;2022-08-25T00:03:45;4.35;;;2.20;;
35022;SDS011;21214;44.912;8.204;2022-08-25T00:06:11;2.90;;;2.55;;
35022;SDS011;21214;44.912;8.204;2022-08-25T00:20:07;3.35;;;2.60;;
35022;SDS011;21214;44.912;8.204;2022-08-25T00:22:36;2.70;;;2.50;;
35022;SDS011;21214;44.912;8.204;2022-08-25T00:25:04;2.50;;;2.22;;
35022;SDS011;21214;44.912;8.204;2022-08-25T00:27:33;4.55;;;2.53;;
35022;SDS011;21214;44.912;8.204;2022-08-25T00:30:03;3.97;;;2.42;;
35022;SDS011;21214;44.912;8.204;2022-08-25T00:32:30;7.40;;;2.38;;
35022;SDS011;21214;44.912;8.204;2022-08-25T00:34:56;2.72;;;2.53;;
35022;SDS011;21214;44.912;8.204;2022-08-25T00:37:27;2.45;;;2.28;;
35022;SDS011;21214;44.912;8.204;2022-08-25T00:39:53;4.68;;;2.80;;
35022;SDS011;21214;44.912;8.204;2022-08-25T00:42:26;3.00;;;2.65;;
35022;SDS011;21214;44.912;8.204;2022-08-25T00:44:52;3.78;;;2.80;;
35022;SDS011;21214;44.912;8.204;2022-08-25T00:47:19;3.00;;;2.47;;
35022;SDS011;21214;44.912;8.204;2022-08-25T00:49:52;2.83;;;2.63;;
35022;SDS011;21214;44.912;8.204;2022-08-25T00:52:27;3.17;;;2.67;;
35022;SDS011;21214;44.912;8.204;2022-08-25T00:54:58;3.05;;;2.70;;
35022;SDS011;21214;44.912;8.204;2022-08-25T01:00:37;9.32;;;2.95;;
35022;SDS011;21214;44.912;8.204;2022-08-25T01:06:44;2.83;;;2.47;;
35022;SDS011;21214;44.912;8.204;2022-08-25T01:09:20;3.42;;;3.13;;
35022;SDS011;21214;44.912;8.204;2022-08-25T01:11:46;4.60;;;2.70;;
35022;SDS011;21214;44.912;8.204;2022-08-25T01:14:13;9.02;;;2.95;;
35022;SDS011;21214;44.912;8.204;2022-08-25T01:16:41;3.33;;;3.03;;
35022;SDS011;21214;44.912;8.204;2022-08-25T01:19:09;5.32;;;2.90;;
35022;SDS011;21214;44.912;8.204;2022-08-25T01:21:38;4.85;;;3.38;;
35022;SDS011;21214;44.912;8.204;2022-08-25T01:24:06;4.00;;;2.77;;
35022;SDS011;21214;44.912;8.204;2022-08-25T01:26:38;3.97;;;2.90;;
35022;SDS011;21214;44.912;8.204;2022-08-25T01:29:04;3.22;;;2.70;;
35022;SDS011;21214;44.912;8.204;2022-08-25T01:31:50;5.45;;;3.50;;
35022;SDS011;21214;44.912;8.204;2022-08-25T01:34:19;5.00;;;3.95;;
35022;SDS011;21214;44.912;8.204;2022-08-25T01:36:55;4.57;;;3.30;;
35022;SDS011;21214;44.912;8.204;2022-08-25T01:39:35;5.90;;;3.20;;
35022;SDS011;21214;44.912;8.204;2022-08-25T01:44:37;4.40;;;3.10;;
35022;SDS011;21214;44.912;8.204;2022-08-25T01:47:08;3.42;;;3.10;;
35022;SDS011;21214;44.912;8.204;2022-08-25T01:49:35;14.25;;;3.67;;
35022;SDS011;21214;44.912;8.204;2022-08-25T01:52:06;3.45;;;3.10;;
35022;SDS011;21214;44.912;8.204;2022-08-25T01:55:04;3.40;;;2.95;;
35022;SDS011;21214;44.912;8.204;2022-08-25T01:57:30;5.30;;;3.30;;
35022;SDS011;21214;44.912;8.204;2022-08-25T01:59:56;4.68;;;2.92;;
35022;SDS011;21214;44.912;8.204;2022-08-25T02:02:22;3.63;;;3.33;;
35022;SDS011;21214;44.912;8.204;2022-08-25T02:04:48;5.75;;;3.10;;
35022;SDS011;21214;44.912;8.204;2022-08-25T02:07:16;4.38;;;3.15;;
35022;SDS011;21214;44.912;8.204;2022-08-25T02:09:51;3.50;;;2.78;;
35022;SDS011;21214;44.912;8.204;2022-08-25T02:12:16;5.35;;;3.20;;
35022;SDS011;21214;44.912;8.204;2022-08-25T02:14:42;3.65;;;3.10;;
35022;SDS011;21214;44.912;8.204;2022-08-25T02:17:13;3.35;;;2.80;;
35022;SDS011;21214;44.912;8.204;2022-08-25T02:19:48;3.03;;;2.75;;
35022;SDS011;21214;44.912;8.204;2022-08-25T02:22:27;4.20;;;3.13;;
35022;SDS011;21214;44.912;8.204;2022-08-25T02:24:53;4.97;;;2.85;;
35022;SDS011;21214;44.912;8.204;2022-08-25T02:27:24;3.75;;;2.75;;
35022;SDS011;21214;44.912;8.204;2022-08-25T02:29:53;3.45;;;3.15;;
35022;SDS011;21214;44.912;8.204;2022-08-25T02:32:18;3.17;;;2.88;;
35022;SDS011;21214;44.912;8.204;2022-08-25T02:35:20;4.63;;;3.08;;
35022;SDS011;21214;44.912;8.204;2022-08-25T02:37:46;3.85;;;2.83;;
35022;SDS011;21214;44.912;8.204;2022-08-25T02:40:11;3.13;;;2.80;;
35022;SDS011;21214;44.912;8.204;2022-08-25T02:48:37;5.22;;;3.08;;
35022;SDS011;21214;44.912;8.204;2022-08-25T02:51:04;4.50;;;3.35;;
35022;SDS011;21214;44.912;8.204;2022-08-25T02:53:50;6.57;;;3.65;;
35022;SDS011;21214;44.912;8.204;2022-08-25T02:56:19;7.10;;;3.60;;
35022;SDS011;21214;44.912;8.204;2022-08-25T02:58:51;3.88;;;3.58;;
35022;SDS011;21214;44.912;8.204;2022-08-25T03:01:17;3.63;;;3.33;;
35022;SDS011;21214;44.912;8.204;2022-08-25T03:03:43;4.30;;;3.53;;
35022;SDS011;21214;44.912;8.204;2022-08-25T03:06:25;4.05;;;3.70;;
35022;SDS011;21214;44.912;8.204;2022-08-25T03:08:52;6.05;;;4.05;;
35022;SDS011;21214;44.912;8.204;2022-08-25T03:11:18;3.80;;;3.50;;
35022;SDS011;21214;44.912;8.204;2022-08-25T03:13:45;5.93;;;3.92;;
35022;SDS011;21214;44.912;8.204;2022-08-25T03:16:11;5.20;;;3.83;;
35022;SDS011;21214;44.912;8.204;2022-08-25T03:18:38;6.60;;;4.57;;
35022;SDS011;21214;44.912;8.204;2022-08-25T03:21:06;4.57;;;3.80;;
35022;SDS011;21214;44.912;8.204;2022-08-25T03:23:36;4.72;;;4.20;;
35022;SDS011;21214;44.912;8.204;2022-08-25T03:26:29;3.80;;;3.50;;
35022;SDS011;21214;44.912;8.204;2022-08-25T03:29:16;4.55;;;3.72;;
35022;SDS011;21214;44.912;8.204;2022-08-25T03:31:42;4.72;;;3.95;;
35022;SDS011;21214;44.912;8.204;2022-08-25T03:34:16;4.03;;;3.63;;
35022;SDS011;21214;44.912;8.204;2022-08-25T03:36:43;3.60;;;3.30;;
35022;SDS011;21214;44.912;8.204;2022-08-25T03:39:11;3.85;;;3.55;;
35022;SDS011;21214;44.912;8.204;2022-08-25T03:41:37;4.03;;;3.78;;
35022;SDS011;21214;44.912;8.204;2022-08-25T03:44:04;4.18;;;3.45;;
35022;SDS011;21214;44.912;8.204;2022-08-25T03:47:23;4.05;;;3.35;;
35022;SDS011;21214;44.912;8.204;2022-08-25T03:49:59;6.35;;;4.10;;
35022;SDS011;21214;44.912;8.204;2022-08-25T03:52:25;6.35;;;4.40;;
35022;SDS011;21214;44.912;8.204;2022-08-25T04:17:30;4.88;;;4.07;;
35022;SDS011;21214;44.912;8.204;2022-08-25T04:19:56;6.15;;;4.20;;
35022;SDS011;21214;44.912;8.204;2022-08-25T04:22:22;4.30;;;3.90;;
35022;SDS011;21214;44.912;8.204;2022-08-25T04:24:48;5.00;;;3.97;;
35022;SDS011;21214;44.912;8.204;2022-08-25T04:27:14;6.03;;;4.60;;
35022;SDS011;21214;44.912;8.204;2022-08-25T04:29:39;4.50;;;4.18;;
35022;SDS011;21214;44.912;8.204;2022-08-25T04:32:05;6.82;;;3.80;;
35022;SDS011;21214;44.912;8.204;2022-08-25T04:34:31;4.45;;;4.15;;
35022;SDS011;21214;44.912;8.204;2022-08-25T04:40:00;7.72;;;4.15;;
35022;SDS011;21214;44.912;8.204;2022-08-25T04:43:10;5.13;;;4.40;;
35022;SDS011;21214;44.912;8.204;2022-08-25T04:46:21;5.05;;;4.65;;
35022;SDS011;21214;44.912;8.204;2022-08-25T04:49:49;6.22;;;4.38;;
35022;SDS011;21214;44.912;8.204;2022-08-25T04:52:15;6.30;;;4.63;;
35022;SDS011;21214;44.912;8.204;2022-08-25T04:54:40;4.50;;;4.20;;
35022;SDS011;21214;44.912;8.204;2022-08-25T04:57:07;5.10;;;4.60;;
35022;SDS011;21214;44.912;8.204;2022-08-25T04:59:32;5.03;;;4.63;;
35022;SDS011;21214;44.912;8.204;2022-08-25T05:01:58;6.15;;;5.10;;
35022;SDS011;21214;44.912;8.204;2022-08-25T05:04:36;6.28;;;4.65;;
35022;SDS011;21214;44.912;8.204;2022-08-25T05:07:02;6.28;;;4.80;;
35022;SDS011;21214;44.912;8.204;2022-08-25T05:09:50;6.78;;;5.22;;
35022;SDS011;21214;44.912;8.204;2022-08-25T05:12:16;5.68;;;4.75;;
35022;SDS011;21214;44.912;8.204;2022-08-25T05:14:41;5.82;;;5.30;;
35022;SDS011;21214;44.912;8.204;2022-08-25T05:17:07;7.95;;;4.90;;
35022;SDS011;21214;44.912;8.204;2022-08-25T05:19:32;5.22;;;4.72;;
35022;SDS011;21214;44.912;8.204;2022-08-25T05:22:00;5.45;;;4.93;;
35022;SDS011;21214;44.912;8.204;2022-08-25T05:24:25;7.45;;;5.53;;
35022;SDS011;21214;44.912;8.204;2022-08-25T05:26:52;5.78;;;5.05;;
35022;SDS011;21214;44.912;8.204;2022-08-25T05:29:17;5.93;;;5.43;;
35022;SDS011;21214;44.912;8.204;2022-08-25T05:31:43;7.95;;;5.35;;
35022;SDS011;21214;44.912;8.204;2022-08-25T05:34:09;6.22;;;5.18;;
35022;SDS011;21214;44.912;8.204;2022-08-25T05:36:36;6.75;;;5.60;;
35022;SDS011;21214;44.912;8.204;2022-08-25T05:39:07;5.78;;;5.20;;
35022;SDS011;21214;44.912;8.204;2022-08-25T05:41:33;5.85;;;5.00;;
35022;SDS011;21214;44.912;8.204;2022-08-25T05:43:58;6.80;;;5.30;;
35022;SDS011;21214;44.912;8.204;2022-08-25T05:46:24;5.60;;;5.07;;
35022;SDS011;21214;44.912;8.204;2022-08-25T05:48:50;6.13;;;5.38;;
35022;SDS011;21214;44.912;8.204;2022-08-25T05:51:16;6.18;;;5.55;;
35022;SDS011;21214;44.912;8.204;2022-08-25T05:53:45;6.05;;;5.53;;
35022;SDS011;21214;44.912;8.204;2022-08-25T05:56:13;5.07;;;4.68;;
35022;SDS011;21214;44.912;8.204;2022-08-25T05:58:39;6.57;;;5.15;;
35022;SDS011;21214;44.912;8.204;2022-08-25T06:01:06;7.95;;;5.30;;
35022;SDS011;21214;44.912;8.204;2022-08-25T06:03:50;5.63;;;5.13;;
35022;SDS011;21214;44.912;8.204;2022-08-25T06:06:18;5.88;;;5.25;;
35022;SDS011;21214;44.912;8.204;2022-08-25T06:08:45;6.38;;;5.80;;
35022;SDS011;21214;44.912;8.204;2022-08-25T06:11:12;6.80;;;5.93;;
35022;SDS011;21214;44.912;8.204;2022-08-25T06:13:38;8.43;;;5.70;;
35022;SDS011;21214;44.912;8.204;2022-08-25T06:16:04;6.20;;;5.60;;
35022;SDS011;21214;44.912;8.204;2022-08-25T06:18:30;7.10;;;5.57;;
35022;SDS011;21214;44.912;8.204;2022-08-25T06:20:56;7.03;;;5.57;;
35022;SDS011;21214;44.912;8.204;2022-08-25T06:23:21;7.47;;;5.25;;
35022;SDS011;21214;44.912;8.204;2022-08-25T06:25:50;6.80;;;6.20;;
35022;SDS011;21214;44.912;8.204;2022-08-25T06:30:43;5.85;;;5.28;;
35022;SDS011;21214;44.912;8.204;2022-08-25T06:33:10;5.95;;;5.45;;
35022;SDS011;21214;44.912;8.204;2022-08-25T06:35:35;6.28;;;5.68;;
35022;SDS011;21214;44.912;8.204;2022-08-25T06:38:02;6.45;;;5.85;;
35022;SDS011;21214;44.912;8.204;2022-08-25T06:40:27;7.18;;;6.57;;
35022;SDS011;21214;44.912;8.204;2022-08-25T06:42:53;6.78;;;6.07;;
35022;SDS011;21214;44.912;8.204;2022-08-25T06:45:18;7.00;;;6.13;;
35022;SDS011;21214;44.912;8.204;2022-08-25T06:47:46;7.70;;;6.05;;
35022;SDS011;21214;44.912;8.204;2022-08-25T06:50:12;7.72;;;6.28;;
35022;SDS011;21214;44.912;8.204;2022-08-25T06:52:38;6.43;;;5.82;;
35022;SDS011;21214;44.912;8.204;2022-08-25T06:55:03;6.68;;;5.50;;
35022;SDS011;21214;44.912;8.204;2022-08-25T06:57:30;6.32;;;5.70;;
35022;SDS011;21214;44.912;8.204;2022-08-25T07:00:00;7.75;;;6.60;;
35022;SDS011;21214;44.912;8.204;2022-08-25T07:02:26;7.47;;;5.93;;
35022;SDS011;21214;44.912;8.204;2022-08-25T07:04:51;6.97;;;5.55;;
35022;SDS011;21214;44.912;8.204;2022-08-25T07:07:17;6.72;;;5.80;;
35022;SDS011;21214;44.912;8.204;2022-08-25T07:09:43;7.03;;;5.60;;
35022;SDS011;21214;44.912;8.204;2022-08-25T07:12:13;8.20;;;5.80;;
35022;SDS011;21214;44.912;8.204;2022-08-25T07:14:38;9.75;;;6.60;;
35022;SDS011;21214;44.912;8.204;2022-08-25T07:17:04;6.38;;;5.60;;
35022;SDS011;21214;44.912;8.204;2022-08-25T07:19:30;7.15;;;6.45;;
35022;SDS011;21214;44.912;8.204;2022-08-25T07:21:56;6.75;;;6.18;;
35022;SDS011;21214;44.912;8.204;2022-08-25T07:24:22;6.88;;;5.50;;
35022;SDS011;21214;44.912;8.204;2022-08-25T07:26:47;7.25;;;6.03;;
35022;SDS011;21214;44.912;8.204;2022-08-25T07:29:22;10.18;;;6.38;;
35022;SDS011;21214;44.912;8.204;2022-08-25T07:31:49;7.05;;;6.07;;
35022;SDS011;21214;44.912;8.204;2022-08-25T07:34:14;7.03;;;6.35;;
35022;SDS011;21214;44.912;8.204;2022-08-25T07:36:59;6.22;;;5.72;;
35022;SDS011;21214;44.912;8.204;2022-08-25T07:39:25;6.90;;;6.22;;
35022;SDS011;21214;44.912;8.204;2022-08-25T07:41:52;6.38;;;5.70;;
35022;SDS011;21214;44.912;8.204;2022-08-25T07:44:18;7.53;;;6.00;;
35022;SDS011;21214;44.912;8.204;2022-08-25T07:46:46;8.55;;;6.07;;
35022;SDS011;21214;44.912;8.204;2022-08-25T07:49:12;9.82;;;6.18;;
35022;SDS011;21214;44.912;8.204;2022-08-25T07:51:37;6.65;;;5.82;;
35022;SDS011;21214;44.912;8.204;2022-08-25T07:54:04;8.35;;;5.68;;
35022;SDS011;21214;44.912;8.204;2022-08-25T07:56:30;6.03;;;5.47;;
35022;SDS011;21214;44.912;8.204;2022-08-25T07:58:55;7.95;;;5.97;;
35022;SDS011;21214;44.912;8.204;2022-08-25T08:01:22;5.80;;;5.30;;
35022;SDS011;21214;44.912;8.204;2022-08-25T08:03:50;6.50;;;5.65;;
35022;SDS011;21214;44.912;8.204;2022-08-25T08:06:18;6.60;;;6.10;;
35022;SDS011;21214;44.912;8.204;2022-08-25T08:08:47;6.85;;;6.03;;
35022;SDS011;21214;44.912;8.204;2022-08-25T08:11:15;6.40;;;5.80;;
35022;SDS011;21214;44.912;8.204;2022-08-25T08:13:53;8.20;;;5.65;;
35022;SDS011;21214;44.912;8.204;2022-08-25T08:16:20;6.15;;;5.63;;
35022;SDS011;21214;44.912;8.204;2022-08-25T08:18:47;7.80;;;6.13;;
35022;SDS011;21214;44.912;8.204;2022-08-25T08:21:14;6.00;;;5.50;;
35022;SDS011;21214;44.912;8.204;2022-08-25T08:23:39;6.40;;;4.25;;
35022;SDS011;21214;44.912;8.204;2022-08-25T08:26:05;6.68;;;4.50;;
35022;SDS011;21214;44.912;8.204;2022-08-25T08:28:31;5.40;;;4.53;;
35022;SDS011;21214;44.912;8.204;2022-08-25T08:30:56;4.63;;;4.13;;
35022;SDS011;21214;44.912;8.204;2022-08-25T08:33:22;5.05;;;4.13;;
35022;SDS011;21214;44.912;8.204;2022-08-25T08:35:59;8.68;;;4.50;;
35022;SDS011;21214;44.912;8.204;2022-08-25T08:38:26;4.55;;;4.15;;
35022;SDS011;21214;44.912;8.204;2022-08-25T08:44:08;5.05;;;3.80;;
35022;SDS011;21214;44.912;8.204;2022-08-25T08:46:48;9.50;;;3.60;;
35022;SDS011;21214;44.912;8.204;2022-08-25T08:49:26;7.88;;;4.38;;
35022;SDS011;21214;44.912;8.204;2022-08-25T08:52:09;4.20;;;3.67;;
35022;SDS011;21214;44.912;8.204;2022-08-25T08:54:39;4.90;;;3.90;;
35022;SDS011;21214;44.912;8.204;2022-08-25T08:57:17;5.90;;;3.33;;
35022;SDS011;21214;44.912;8.204;2022-08-25T08:59:51;4.28;;;3.45;;
35022;SDS011;21214;44.912;8.204;2022-08-25T09:05:08;4.22;;;3.15;;
35022;SDS011;21214;44.912;8.204;2022-08-25T09:07:47;7.88;;;3.63;;
35022;SDS011;21214;44.912;8.204;2022-08-25T09:10:17;6.57;;;4.07;;
35022;SDS011;21214;44.912;8.204;2022-08-25T09:15:48;6.57;;;3.38;;
35022;SDS011;21214;44.912;8.204;2022-08-25T09:31:29;4.70;;;2.58;;
35022;SDS011;21214;44.912;8.204;2022-08-25T09:33:59;3.63;;;3.00;;
35022;SDS011;21214;44.912;8.204;2022-08-25T09:36:27;3.43;;;2.57;;
35022;SDS011;21214;44.912;8.204;2022-08-25T09:38:52;3.15;;;2.13;;
35022;SDS011;21214;44.912;8.204;2022-08-25T09:41:34;5.30;;;2.17;;
35022;SDS011;21214;44.912;8.204;2022-08-25T09:44:06;4.50;;;2.50;;
35022;SDS011;21214;44.912;8.204;2022-08-25T09:46:53;3.60;;;1.83;;
35022;SDS011;21214;44.912;8.204;2022-08-25T09:49:30;2.47;;;1.55;;
35022;SDS011;21214;44.912;8.204;2022-08-25T09:57:52;5.20;;;1.58;;
35022;SDS011;21214;44.912;8.204;2022-08-25T10:00:30;4.40;;;1.80;;
35022;SDS011;21214;44.912;8.204;2022-08-25T10:03:11;2.20;;;1.80;;
35022;SDS011;21214;44.912;8.204;2022-08-25T10:05:46;4.90;;;1.65;;
35022;SDS011;21214;44.912;8.204;2022-08-25T10:08:29;4.32;;;1.63;;
35022;SDS011;21214;44.912;8.204;2022-08-25T10:10:59;4.43;;;1.95;;
35022;SDS011;21214;44.912;8.204;2022-08-25T10:13:42;2.13;;;1.83;;
35022;SDS011;21214;44.912;8.204;2022-08-25T10:16:21;2.78;;;2.00;;
35022;SDS011;21214;44.912;8.204;2022-08-25T10:19:08;2.15;;;1.95;;
35022;SDS011;21214;44.912;8.204;2022-08-25T10:21:38;1.77;;;1.60;;
35022;SDS011;21214;44.912;8.204;2022-08-25T10:24:06;5.68;;;2.15;;
35022;SDS011;21214;44.912;8.204;2022-08-25T10:32:40;4.88;;;1.75;;
35022;SDS011;21214;44.912;8.204;2022-08-25T10:34:50;1.95;;;1.55;;
35022;SDS011;21214;44.912;8.204;2022-08-25T10:40:00;4.57;;;2.00;;
35022;SDS011;21214;44.912;8.204;2022-08-25T11:02:36;2.50;;;1.80;;
35022;SDS011;21214;44.912;8.204;2022-08-25T11:05:29;3.42;;;1.98;;
35022;SDS011;21214;44.912;8.204;2022-08-25T11:13:15;3.40;;;2.00;;
35022;SDS011;21214;44.912;8.204;2022-08-25T11:16:08;4.10;;;2.10;;
35022;SDS011;21214;44.912;8.204;2022-08-25T11:18:39;1.83;;;1.60;;
35022;SDS011;21214;44.912;8.204;2022-08-25T11:21:14;4.35;;;1.80;;
35022;SDS011;21214;44.912;8.204;2022-08-25T11:23:51;2.47;;;1.70;;
35022;SDS011;21214;44.912;8.204;2022-08-25T11:26:27;2.60;;;2.15;;
35022;SDS011;21214;44.912;8.204;2022-08-25T11:29:03;1.85;;;1.60;;
35022;SDS011;21214;44.912;8.204;2022-08-25T11:31:37;3.42;;;1.67;;
35022;SDS011;21214;44.912;8.204;2022-08-25T11:34:12;2.60;;;1.95;;
35022;SDS011;21214;44.912;8.204;2022-08-25T11:36:41;2.30;;;1.50;;
35022;SDS011;21214;44.912;8.204;2022-08-25T11:39:21;2.55;;;1.63;;
35022;SDS011;21214;44.912;8.204;2022-08-25T11:49:59;1.73;;;1.63;;
35022;SDS011;21214;44.912;8.204;2022-08-25T11:57:39;1.50;;;1.40;;
35022;SDS011;21214;44.912;8.204;2022-08-25T12:00:08;2.05;;;1.83;;
35022;SDS011;21214;44.912;8.204;2022-08-25T12:02:41;1.92;;;1.65;;
35022;SDS011;21214;44.912;8.204;2022-08-25T12:15:53;3.42;;;1.98;;
35022;SDS011;21214;44.912;8.204;2022-08-25T12:28:51;1.73;;;1.50;;
35022;SDS011;21214;44.912;8.204;2022-08-25T12:31:42;4.30;;;2.00;;
35022;SDS011;21214;44.912;8.204;2022-08-25T12:37:12;3.45;;;1.60;;
35022;SDS011;21214;44.912;8.204;2022-08-25T12:39:42;2.30;;;2.08;;
35022;SDS011;21214;44.912;8.204;2022-08-25T12:42:17;1.70;;;1.60;;
35022;SDS011;21214;44.912;8.204;2022-08-25T12:44:48;2.28;;;1.70;;
35022;SDS011;21214;44.912;8.204;2022-08-25T12:47:34;1.80;;;1.70;;
35022;SDS011;21214;44.912;8.204;2022-08-25T12:52:51;1.85;;;1.55;;
35022;SDS011;21214;44.912;8.204;2022-08-25T12:55:19;1.75;;;1.65;;
35022;SDS011;21214;44.912;8.204;2022-08-25T12:57:50;1.90;;;1.63;;
35022;SDS011;21214;44.912;8.204;2022-08-25T13:00:24;2.90;;;1.55;;
35022;SDS011;21214;44.912;8.204;2022-08-25T13:08:43;1.30;;;1.30;;
35022;SDS011;21214;44.912;8.204;2022-08-25T13:14:22;1.73;;;1.50;;
35022;SDS011;21214;44.912;8.204;2022-08-25T13:16:59;1.55;;;1.45;;
35022;SDS011;21214;44.912;8.204;2022-08-25T13:19:25;6.35;;;1.40;;
35022;SDS011;21214;44.912;8.204;2022-08-25T13:21:52;2.70;;;1.60;;
35022;SDS011;21214;44.912;8.204;2022-08-25T13:24:21;1.98;;;1.58;;
35022;SDS011;21214;44.912;8.204;2022-08-25T13:26:58;3.28;;;1.65;;
35022;SDS011;21214;44.912;8.204;2022-08-25T13:29:29;1.70;;;1.60;;
35022;SDS011;21214;44.912;8.204;2022-08-25T13:32:00;1.90;;;1.70;;
35022;SDS011;21214;44.912;8.204;2022-08-25T13:34:30;2.58;;;1.58;;
35022;SDS011;21214;44.912;8.204;2022-08-25T13:37:10;2.17;;;1.27;;
35022;SDS011;21214;44.912;8.204;2022-08-25T13:42:51;1.95;;;1.73;;
35022;SDS011;21214;44.912;8.204;2022-08-25T13:45:25;1.70;;;1.60;;
35022;SDS011;21214;44.912;8.204;2022-08-25T13:47:53;1.80;;;1.35;;
35022;SDS011;21214;44.912;8.204;2022-08-25T13:52:56;1.70;;;1.40;;
35022;SDS011;21214;44.912;8.204;2022-08-25T13:55:23;3.25;;;1.73;;
35022;SDS011;21214;44.912;8.204;2022-08-25T13:57:52;1.80;;;1.70;;
35022;SDS011;21214;44.912;8.204;2022-08-25T14:00:29;2.35;;;1.40;;
35022;SDS011;21214;44.912;8.204;2022-08-25T14:02:59;1.73;;;1.50;;
35022;SDS011;21214;44.912;8.204;2022-08-25T14:11:28;2.50;;;2.03;;
35022;SDS011;21214;44.912;8.204;2022-08-25T14:14:07;1.77;;;1.55;;
35022;SDS011;21214;44.912;8.204;2022-08-25T14:16:37;1.80;;;1.33;;
35022;SDS011;21214;44.912;8.204;2022-08-25T14:19:07;1.65;;;1.55;;
35022;SDS011;21214;44.912;8.204;2022-08-25T14:21:39;1.85;;;1.75;;
35022;SDS011;21214;44.912;8.204;2022-08-25T14:24:04;1.70;;;1.60;;
35022;SDS011;21214;44.912;8.204;2022-08-25T14:26:30;2.35;;;1.45;;
35022;SDS011;21214;44.912;8.204;2022-08-25T14:28:56;1.73;;;1.63;;
35022;SDS011;21214;44.912;8.204;2022-08-25T14:34:07;2.60;;;1.67;;
35022;SDS011;21214;44.912;8.204;2022-08-25T14:36:36;2.45;;;1.88;;
35022;SDS011;21214;44.912;8.204;2022-08-25T14:39:02;3.45;;;1.40;;
35022;SDS011;21214;44.912;8.204;2022-08-25T14:41:30;2.33;;;1.52;;
35022;SDS011;21214;44.912;8.204;2022-08-25T14:44:00;1.67;;;1.58;;
35022;SDS011;21214;44.912;8.204;2022-08-25T14:46:27;1.90;;;1.50;;
35022;SDS011;21214;44.912;8.204;2022-08-25T14:48:59;1.92;;;1.67;;
35022;SDS011;21214;44.912;8.204;2022-08-25T14:51:28;3.13;;;1.80;;
35022;SDS011;21214;44.912;8.204;2022-08-25T14:53:56;3.85;;;1.70;;
35022;SDS011;21214;44.912;8.204;2022-08-25T14:56:26;2.13;;;1.70;;
35022;SDS011;21214;44.912;8.204;2022-08-25T14:58:53;1.75;;;1.48;;
35022;SDS011;21214;44.912;8.204;2022-08-25T15:01:19;2.20;;;1.60;;
35022;SDS011;21214;44.912;8.204;2022-08-25T15:03:47;3.25;;;2.00;;
35022;SDS011;21214;44.912;8.204;2022-08-25T15:06:15;1.52;;;1.40;;
35022;SDS011;21214;44.912;8.204;2022-08-25T15:08:41;2.00;;;1.58;;
35022;SDS011;21214;44.912;8.204;2022-08-25T15:11:26;3.05;;;1.65;;
35022;SDS011;21214;44.912;8.204;2022-08-25T15:13:53;1.80;;;1.70;;
35022;SDS011;21214;44.912;8.204;2022-08-25T15:16:24;4.55;;;1.60;;
35022;SDS011;21214;44.912;8.204;2022-08-25T15:18:53;1.88;;;1.60;;
35022;SDS011;21214;44.912;8.204;2022-08-25T15:21:19;3.38;;;1.75;;
35022;SDS011;21214;44.912;8.204;2022-08-25T15:23:44;2.13;;;1.60;;
35022;SDS011;21214;44.912;8.204;2022-08-25T15:26:10;1.83;;;1.65;;
35022;SDS011;21214;44.912;8.204;2022-08-25T15:28:38;2.15;;;1.95;;
35022;SDS011;21214;44.912;8.204;2022-08-25T15:31:09;1.60;;;1.50;;
35022;SDS011;21214;44.912;8.204;2022-08-25T15:33:35;2.00;;;1.80;;
35022;SDS011;21214;44.912;8.204;2022-08-25T15:36:01;2.70;;;1.67;;
35022;SDS011;21214;44.912;8.204;2022-08-25T15:38:26;2.75;;;1.55;;
35022;SDS011;21214;44.912;8.204;2022-08-25T15:40:52;3.00;;;1.55;;
35022;SDS011;21214;44.912;8.204;2022-08-25T15:43:17;1.80;;;1.65;;
35022;SDS011;21214;44.912;8.204;2022-08-25T15:45:43;4.18;;;1.83;;
35022;SDS011;21214;44.912;8.204;2022-08-25T15:48:08;4.07;;;1.58;;
35022;SDS011;21214;44.912;8.204;2022-08-25T15:50:34;2.65;;;1.90;;
35022;SDS011;21214;44.912;8.204;2022-08-25T15:52:59;4.07;;;1.67;;
35022;SDS011;21214;44.912;8.204;2022-08-25T15:55:25;3.13;;;1.80;;
35022;SDS011;21214;44.912;8.204;2022-08-25T15:57:51;2.15;;;1.95;;
35022;SDS011;21214;44.912;8.204;2022-08-25T16:00:17;1.65;;;1.55;;
35022;SDS011;21214;44.912;8.204;2022-08-25T16:02:43;4.25;;;1.73;;
35022;SDS011;21214;44.912;8.204;2022-08-25T16:05:09;7.50;;;1.70;;
35022;SDS011;21214;44.912;8.204;2022-08-25T16:07:36;2.20;;;1.50;;
35022;SDS011;21214;44.912;8.204;2022-08-25T16:10:03;2.67;;;1.63;;
35022;SDS011;21214;44.912;8.204;2022-08-25T16:12:29;1.60;;;1.50;;
35022;SDS011;21214;44.912;8.204;2022-08-25T16:14:55;2.03;;;1.83;;
35022;SDS011;21214;44.912;8.204;2022-08-25T16:17:21;5.22;;;1.75;;
35022;SDS011;21214;44.912;8.204;2022-08-25T16:19:47;5.30;;;1.80;;
35022;SDS011;21214;44.912;8.204;2022-08-25T16:22:12;4.78;;;1.85;;
35022;SDS011;21214;44.912;8.204;2022-08-25T16:24:39;2.72;;;2.13;;
35022;SDS011;21214;44.912;8.204;2022-08-25T16:27:08;5.20;;;2.08;;
35022;SDS011;21214;44.912;8.204;2022-08-25T16:29:36;2.15;;;1.85;;
35022;SDS011;21214;44.912;8.204;2022-08-25T16:32:05;8.57;;;1.70;;
35022;SDS011;21214;44.912;8.204;2022-08-25T16:34:32;1.75;;;1.65;;
35022;SDS011;21214;44.912;8.204;2022-08-25T16:36:59;3.05;;;1.60;;
35022;SDS011;21214;44.912;8.204;2022-08-25T16:39:25;5.32;;;1.77;;
35022;SDS011;21214;44.912;8.204;2022-08-25T16:41:51;3.55;;;1.98;;
35022;SDS011;21214;44.912;8.204;2022-08-25T16:44:17;3.47;;;1.80;;
35022;SDS011;21214;44.912;8.204;2022-08-25T16:46:44;2.42;;;1.80;;
35022;SDS011;21214;44.912;8.204;2022-08-25T16:49:10;4.40;;;1.95;;
35022;SDS011;21214;44.912;8.204;2022-08-25T16:51:37;8.73;;;2.00;;
35022;SDS011;21214;44.912;8.204;2022-08-25T16:54:04;2.30;;;2.10;;
35022;SDS011;21214;44.912;8.204;2022-08-25T16:56:49;2.95;;;1.73;;
35022;SDS011;21214;44.912;8.204;2022-08-25T16:59:15;3.97;;;1.75;;
35022;SDS011;21214;44.912;8.204;2022-08-25T17:01:41;3.90;;;1.98;;
35022;SDS011;21214;44.912;8.204;2022-08-25T17:04:07;2.65;;;1.90;;
35022;SDS011;21214;44.912;8.204;2022-08-25T17:06:35;3.28;;;2.17;;
35022;SDS011;21214;44.912;8.204;2022-08-25T17:09:02;3.33;;;1.70;;
35022;SDS011;21214;44.912;8.204;2022-08-25T17:11:31;3.70;;;1.80;;
35022;SDS011;21214;44.912;8.204;2022-08-25T17:14:04;2.55;;;1.90;;
35022;SDS011;21214;44.912;8.204;2022-08-25T17:16:31;1.83;;;1.73;;
35022;SDS011;21214;44.912;8.204;2022-08-25T17:18:59;1.98;;;1.83;;
35022;SDS011;21214;44.912;8.204;2022-08-25T17:21:32;2.53;;;1.70;;
35022;SDS011;21214;44.912;8.204;2022-08-25T17:24:02;4.60;;;2.05;;
35022;SDS011;21214;44.912;8.204;2022-08-25T17:26:28;2.35;;;1.63;;
35022;SDS011;21214;44.912;8.204;2022-08-25T17:28:58;5.93;;;1.88;;
35022;SDS011;21214;44.912;8.204;2022-08-25T17:31:25;3.22;;;1.48;;
35022;SDS011;21214;44.912;8.204;2022-08-25T17:33:51;1.88;;;1.75;;
35022;SDS011;21214;44.912;8.204;2022-08-25T17:36:18;1.80;;;1.70;;
35022;SDS011;21214;44.912;8.204;2022-08-25T17:38:44;3.38;;;1.98;;
35022;SDS011;21214;44.912;8.204;2022-08-25T17:41:10;2.05;;;1.85;;
35022;SDS011;21214;44.912;8.204;2022-08-25T17:43:39;1.63;;;1.52;;
35022;SDS011;21214;44.912;8.204;2022-08-25T17:46:06;1.88;;;1.70;;
35022;SDS011;21214;44.912;8.204;2022-08-25T17:48:33;3.53;;;2.78;;
35022;SDS011;21214;44.912;8.204;2022-08-25T17:51:00;4.05;;;2.00;;
35022;SDS011;21214;44.912;8.204;2022-08-25T17:57:04;3.20;;;1.85;;
35022;SDS011;21214;44.912;8.204;2022-08-25T17:59:29;2.33;;;1.33;;
35022;SDS011;21214;44.912;8.204;2022-08-25T18:01:55;3.33;;;2.10;;
35022;SDS011;21214;44.912;8.204;2022-08-25T18:04:24;4.80;;;2.05;;
35022;SDS011;21214;44.912;8.204;2022-08-25T18:06:50;3.20;;;1.80;;
35022;SDS011;21214;44.912;8.204;2022-08-25T18:09:16;3.90;;;2.10;;
35022;SDS011;21214;44.912;8.204;2022-08-25T18:11:43;2.20;;;1.48;;